createdAt,value
2023-05-14T00:02:14.067Z,23.30
2023-05-14T00:04:47.013Z,23.29
2023-05-14T00:07:19.915Z,23.28
2023-05-14T00:09:53.251Z,23.27
2023-05-14T00:12:26.846Z,23.27
2023-05-14T00:14:59.644Z,23.26
2023-05-14T00:17:32.964Z,23.25
2023-05-14T00:20:06.021Z,23.25
2023-05-14T00:22:38.667Z,23.24
2023-05-14T00:25:12.070Z,23.23
2023-05-14T00:27:45.188Z,23.23
2023-05-14T00:30:18.978Z,23.22
2023-05-14T00:32:52.148Z,23.21
2023-05-14T00:35:24.956Z,23.21
2023-05-14T00:37:58.029Z,23.20
2023-05-14T00:40:31.149Z,23.20
2023-05-14T00:43:03.952Z,23.19
2023-05-14T00:45:36.704Z,23.19
2023-05-14T00:48:09.974Z,23.18
2023-05-14T00:50:43.055Z,23.18
2023-05-14T00:53:16.191Z,23.17
2023-05-14T00:55:50.063Z,23.17
2023-05-14T00:58:22.994Z,23.16
2023-05-14T01:00:56.165Z,23.15
2023-05-14T01:03:29.261Z,23.15
2023-05-14T01:06:01.938Z,23.14
2023-05-14T01:08:34.912Z,23.13
2023-05-14T01:11:08.126Z,23.12
2023-05-14T01:13:41.179Z,23.12
2023-05-14T01:16:14.230Z,23.11
2023-05-14T01:18:47.198Z,23.10
2023-05-14T01:21:19.756Z,23.10
2023-05-14T01:23:52.898Z,23.09
2023-05-14T01:26:26.050Z,23.09
2023-05-14T01:28:59.080Z,23.08
2023-05-14T01:31:32.299Z,23.07
2023-05-14T01:34:06.036Z,23.07
2023-05-14T01:36:53.297Z,23.06
2023-05-14T01:39:27.202Z,23.05
2023-05-14T01:42:00.196Z,23.05
2023-05-14T01:44:33.048Z,23.04
2023-05-14T01:47:06.078Z,23.03
2023-05-14T01:49:38.901Z,23.02
2023-05-14T01:52:12.235Z,23.02
2023-05-14T01:54:46.242Z,23.01
2023-05-14T01:57:19.100Z,23.01
2023-05-14T01:59:52.150Z,23.00
2023-05-14T02:02:25.103Z,23.00
2023-05-14T02:04:58.215Z,22.99
2023-05-14T02:07:31.168Z,22.98
2023-05-14T02:10:04.173Z,22.98
2023-05-14T02:12:37.301Z,22.97
2023-05-14T02:15:10.271Z,22.96
2023-05-14T02:17:44.244Z,22.96
2023-05-14T02:20:20.996Z,22.95
2023-05-14T02:22:54.185Z,22.95
2023-05-14T02:25:27.390Z,22.94
2023-05-14T02:28:01.364Z,22.93
2023-05-14T02:30:34.225Z,22.93
2023-05-14T02:33:07.179Z,22.92
2023-05-14T02:35:39.955Z,22.91
2023-05-14T02:38:13.210Z,22.91
2023-05-14T02:40:46.253Z,22.90
2023-05-14T02:43:22.806Z,22.90
2023-05-14T02:45:56.210Z,22.89
2023-05-14T02:48:29.019Z,22.88
2023-05-14T02:51:02.210Z,22.88
2023-05-14T02:53:35.448Z,22.87
2023-05-14T02:56:08.895Z,22.86
2023-05-14T02:58:42.281Z,22.85
2023-05-14T03:01:15.307Z,22.85
2023-05-14T03:03:48.071Z,22.84
2023-05-14T03:06:20.891Z,22.83
2023-05-14T03:08:54.351Z,22.82
2023-05-14T03:11:27.956Z,22.82
2023-05-14T03:14:01.354Z,22.81
2023-05-14T03:16:34.333Z,22.80
2023-05-14T03:19:07.307Z,22.79
2023-05-14T03:21:40.304Z,22.79
2023-05-14T03:24:13.258Z,22.78
2023-05-14T03:26:46.259Z,22.78
2023-05-14T03:29:18.984Z,22.77
2023-05-14T03:31:52.234Z,22.76
2023-05-14T03:34:25.330Z,22.76
2023-05-14T03:36:58.053Z,22.75
2023-05-14T03:39:31.453Z,22.75
2023-05-14T03:42:05.108Z,22.75
2023-05-14T03:44:38.384Z,22.74
2023-05-14T03:47:11.180Z,22.74
2023-05-14T03:49:44.491Z,22.73
2023-05-14T03:52:18.148Z,22.73
2023-05-14T03:54:51.311Z,22.72
2023-05-14T03:57:24.222Z,22.71
2023-05-14T03:59:57.476Z,22.71
2023-05-14T04:02:31.487Z,22.70
2023-05-14T04:05:04.293Z,22.70
2023-05-14T04:07:37.358Z,22.69
2023-05-14T04:10:10.211Z,22.69
2023-05-14T04:12:43.446Z,22.68
2023-05-14T04:15:17.147Z,22.68
2023-05-14T04:17:50.474Z,22.67
2023-05-14T04:20:23.512Z,22.67
2023-05-14T04:22:59.397Z,22.67
2023-05-14T04:25:32.424Z,22.66
2023-05-14T04:28:05.100Z,22.66
2023-05-14T04:30:38.364Z,22.65
2023-05-14T04:33:11.301Z,22.65
2023-05-14T04:35:44.432Z,22.64
2023-05-14T04:38:17.427Z,22.63
2023-05-14T04:40:50.682Z,22.63
2023-05-14T04:43:24.018Z,22.63
2023-05-14T04:45:57.452Z,22.62
2023-05-14T04:48:30.655Z,22.62
2023-05-14T04:51:06.356Z,22.62
2023-05-14T04:53:37.399Z,22.61
2023-05-14T04:56:10.502Z,22.60
2023-05-14T04:58:44.304Z,22.60
2023-05-14T05:01:17.377Z,22.60
2023-05-14T05:03:50.694Z,22.60
2023-05-14T05:06:24.373Z,22.59
2023-05-14T05:08:57.801Z,22.59
2023-05-14T05:11:30.159Z,22.59
2023-05-14T05:14:03.421Z,22.59
2023-05-14T05:16:36.481Z,22.58
2023-05-14T05:19:09.399Z,22.58
2023-05-14T05:21:42.199Z,22.58
2023-05-14T05:24:15.366Z,22.58
2023-05-14T05:26:48.419Z,22.57
2023-05-14T05:29:21.386Z,22.57
2023-05-14T05:31:54.518Z,22.57
2023-05-14T05:34:27.299Z,22.56
2023-05-14T05:37:00.474Z,22.56
2023-05-14T05:39:33.104Z,22.56
2023-05-14T05:42:06.393Z,22.56
2023-05-14T05:44:39.378Z,22.55
2023-05-14T05:47:12.594Z,22.55
2023-05-14T05:49:47.519Z,22.54
2023-05-14T05:52:34.199Z,22.54
2023-05-14T05:55:07.118Z,22.53
2023-05-14T05:57:41.512Z,22.53
2023-05-14T06:00:14.483Z,22.53
2023-05-14T06:02:47.733Z,22.53
2023-05-14T06:05:21.574Z,22.52
2023-05-14T06:07:54.392Z,22.52
2023-05-14T06:10:27.505Z,22.52
2023-05-14T06:13:00.684Z,22.51
2023-05-14T06:15:34.386Z,22.51
2023-05-14T06:18:07.690Z,22.51
2023-05-14T06:20:40.695Z,22.51
2023-05-14T06:23:14.590Z,22.51
2023-05-14T06:28:20.625Z,22.51
2023-05-14T06:30:53.471Z,22.50
2023-05-14T06:33:26.232Z,22.50
2023-05-14T06:36:02.317Z,22.51
2023-05-14T06:38:35.422Z,22.51
2023-05-14T06:41:08.464Z,22.50
2023-05-14T06:43:41.403Z,22.50
2023-05-14T06:46:14.541Z,22.49
2023-05-14T06:48:47.603Z,22.48
2023-05-14T06:51:20.587Z,22.47
2023-05-14T06:53:53.709Z,22.46
2023-05-14T06:56:27.206Z,22.45
2023-05-14T06:59:00.397Z,22.44
2023-05-14T07:01:36.825Z,22.44
2023-05-14T07:04:10.380Z,22.44
2023-05-14T07:06:43.507Z,22.44
2023-05-14T07:09:16.488Z,22.45
2023-05-14T07:11:49.444Z,22.45
2023-05-14T07:14:22.300Z,22.46
2023-05-14T07:16:55.539Z,22.47
2023-05-14T07:19:29.284Z,22.48
2023-05-14T07:22:02.297Z,22.49
2023-05-14T07:24:35.420Z,22.50
2023-05-14T07:27:08.418Z,22.50
2023-05-14T07:29:41.374Z,22.51
2023-05-14T07:32:15.691Z,22.52
2023-05-14T07:34:47.579Z,22.53
2023-05-14T07:37:22.423Z,22.54
2023-05-14T07:39:54.641Z,22.55
2023-05-14T07:42:36.046Z,22.56
2023-05-14T07:45:00.634Z,22.57
2023-05-14T07:47:37.008Z,22.58
2023-05-14T07:50:10.345Z,22.59
2023-05-14T07:52:43.497Z,22.60
2023-05-14T07:55:16.339Z,22.59
2023-05-14T07:58:03.521Z,22.58
2023-05-14T08:00:36.661Z,22.58
2023-05-14T08:03:09.660Z,22.58
2023-05-14T08:05:42.690Z,22.58
2023-05-14T08:08:15.606Z,22.59
2023-05-14T08:10:48.691Z,22.60
2023-05-14T08:13:21.353Z,22.60
2023-05-14T08:15:54.674Z,22.61
2023-05-14T08:18:27.640Z,22.62
2023-05-14T08:21:06.766Z,22.63
2023-05-14T08:23:39.364Z,22.64
2023-05-14T08:26:12.574Z,22.65
2023-05-14T08:28:45.656Z,22.66
2023-05-14T08:31:18.696Z,22.67
2023-05-14T08:33:51.656Z,22.68
2023-05-14T08:36:24.754Z,22.68
2023-05-14T08:38:57.561Z,22.69
2023-05-14T08:41:30.358Z,22.70
2023-05-14T08:44:03.382Z,22.71
2023-05-14T08:46:36.363Z,22.72
2023-05-14T08:49:09.741Z,22.73
2023-05-14T08:51:42.542Z,22.74
2023-05-14T08:54:15.422Z,22.74
2023-05-14T08:56:50.491Z,22.75
2023-05-14T08:59:21.394Z,22.76
2023-05-14T09:01:54.631Z,22.77
2023-05-14T09:04:27.538Z,22.77
2023-05-14T09:07:00.583Z,22.78
2023-05-14T09:09:33.689Z,22.79
2023-05-14T09:12:06.687Z,22.80
2023-05-14T09:14:39.816Z,22.80
2023-05-14T09:17:12.475Z,22.81
2023-05-14T09:19:48.645Z,22.82
2023-05-14T09:22:21.499Z,22.83
2023-05-14T09:24:54.655Z,22.83
2023-05-14T09:27:27.621Z,22.84
2023-05-14T09:30:00.632Z,22.85
2023-05-14T09:32:33.580Z,22.86
2023-05-14T09:35:06.584Z,22.87
2023-05-14T09:37:39.590Z,22.88
2023-05-14T09:40:12.658Z,22.89
2023-05-14T09:42:45.469Z,22.90
2023-05-14T09:45:18.506Z,22.91
2023-05-14T09:47:51.857Z,22.91
2023-05-14T09:50:25.056Z,22.93
2023-05-14T09:52:57.653Z,22.93
2023-05-14T09:55:30.795Z,22.94
2023-05-14T09:58:03.726Z,22.95
2023-05-14T10:00:36.767Z,22.96
2023-05-14T10:03:09.601Z,22.97
2023-05-14T10:05:42.737Z,22.98
2023-05-14T10:08:15.537Z,22.98
2023-05-14T10:10:48.597Z,22.99
2023-05-14T10:13:21.527Z,23.00
2023-05-14T10:16:00.569Z,23.01
2023-05-14T10:18:33.550Z,23.01
2023-05-14T10:21:06.539Z,23.02
2023-05-14T10:23:39.525Z,23.03
2023-05-14T10:26:12.802Z,23.03
2023-05-14T10:28:45.534Z,23.03
2023-05-14T10:31:18.853Z,23.04
2023-05-14T10:33:51.845Z,23.04
2023-05-14T10:36:24.745Z,23.04
2023-05-14T10:38:57.983Z,23.04
2023-05-14T10:41:30.913Z,23.04
2023-05-14T10:44:03.559Z,23.05
2023-05-14T10:46:36.607Z,23.05
2023-05-14T10:49:09.564Z,23.05
2023-05-14T10:51:42.761Z,23.05
2023-05-14T10:54:15.574Z,23.06
2023-05-14T10:56:48.579Z,23.07
2023-05-14T10:59:21.567Z,23.07
2023-05-14T11:01:54.703Z,23.07
2023-05-14T11:04:27.840Z,23.08
2023-05-14T11:07:00.830Z,23.08
2023-05-14T11:09:33.648Z,23.09
2023-05-14T11:12:06.748Z,23.09
2023-05-14T11:14:39.604Z,23.10
2023-05-14T11:17:12.856Z,23.10
2023-05-14T11:19:45.617Z,23.11
2023-05-14T11:22:18.615Z,23.12
2023-05-14T11:24:51.659Z,23.12
2023-05-14T11:27:26.013Z,23.13
2023-05-14T11:29:59.078Z,23.14
2023-05-14T11:32:32.921Z,23.14
2023-05-14T11:35:06.649Z,23.15
2023-05-14T11:37:39.985Z,23.16
2023-05-14T11:40:13.117Z,23.16
2023-05-14T11:42:47.915Z,23.17
2023-05-14T11:45:20.917Z,23.17
2023-05-14T11:47:54.112Z,23.18
2023-05-14T11:50:27.183Z,23.18
2023-05-14T11:53:00.240Z,23.19
2023-05-14T11:55:33.961Z,23.20
2023-05-14T11:58:06.922Z,23.20
2023-05-14T12:00:39.956Z,23.21
2023-05-14T12:03:13.300Z,23.22
2023-05-14T12:05:46.919Z,23.23
2023-05-14T12:08:20.708Z,23.24
2023-05-14T12:10:53.990Z,23.25
2023-05-14T12:13:27.085Z,23.26
2023-05-14T12:16:00.058Z,23.27
2023-05-14T12:18:33.182Z,23.29
2023-05-14T12:21:05.985Z,23.30
2023-05-14T12:23:39.976Z,23.31
2023-05-14T12:26:13.171Z,23.32
2023-05-14T12:28:47.004Z,23.33
2023-05-14T12:31:20.031Z,23.34
2023-05-14T12:33:53.073Z,23.36
2023-05-14T12:36:25.986Z,23.36
2023-05-14T12:38:59.134Z,23.37
2023-05-14T12:41:32.109Z,23.38
2023-05-14T12:44:04.765Z,23.39
2023-05-14T12:46:42.901Z,23.40
2023-05-14T12:49:16.711Z,23.41
2023-05-14T12:51:56.687Z,23.42
2023-05-14T12:54:25.216Z,23.43
2023-05-14T12:56:59.254Z,23.44
2023-05-14T12:59:32.762Z,23.45
2023-05-14T13:02:06.002Z,23.46
2023-05-14T13:04:39.122Z,23.47
2023-05-14T13:07:12.006Z,23.48
2023-05-14T13:09:44.789Z,23.48
2023-05-14T13:12:18.048Z,23.48
2023-05-14T13:14:50.895Z,23.49
2023-05-14T13:17:23.990Z,23.49
2023-05-14T13:19:57.016Z,23.49
2023-05-14T13:22:29.820Z,23.50
2023-05-14T13:25:04.038Z,23.50
2023-05-14T13:27:36.798Z,23.51
2023-05-14T13:30:10.047Z,23.52
2023-05-14T13:32:42.855Z,23.53
2023-05-14T13:35:16.101Z,23.54
2023-05-14T13:37:50.236Z,23.54
2023-05-14T13:40:24.113Z,23.55
2023-05-14T13:42:58.079Z,23.55
2023-05-14T13:45:31.089Z,23.56
2023-05-14T13:48:03.833Z,23.57
2023-05-14T13:50:37.086Z,23.57
2023-05-14T13:53:10.082Z,23.58
2023-05-14T13:55:43.948Z,23.59
2023-05-14T13:58:16.249Z,23.61
2023-05-14T14:00:49.017Z,23.62
2023-05-14T14:03:22.513Z,23.63
2023-05-14T14:05:56.354Z,23.65
2023-05-14T14:08:30.227Z,23.67
2023-05-14T14:11:02.918Z,23.68
2023-05-14T14:13:49.774Z,23.70
2023-05-14T14:16:23.177Z,23.72
2023-05-14T14:18:56.169Z,23.73
2023-05-14T14:21:29.052Z,23.75
2023-05-14T14:24:02.005Z,23.77
2023-05-14T14:26:34.860Z,23.79
2023-05-14T14:29:08.189Z,23.81
2023-05-14T14:31:41.927Z,23.83
2023-05-14T14:34:16.362Z,23.86
2023-05-14T14:36:50.335Z,23.88
2023-05-14T14:39:28.132Z,23.90
2023-05-14T14:42:02.095Z,23.92
2023-05-14T14:44:34.924Z,23.95
2023-05-14T14:47:09.170Z,23.97
2023-05-14T14:49:42.351Z,24.00
2023-05-14T14:52:16.323Z,24.02
2023-05-14T14:54:53.437Z,24.04
2023-05-14T14:57:31.162Z,24.07
2023-05-14T15:00:13.732Z,24.10
2023-05-14T15:02:51.269Z,24.12
2023-05-14T15:05:37.397Z,24.15
2023-05-14T15:08:11.157Z,24.17
2023-05-14T15:10:44.049Z,24.19
2023-05-14T15:13:17.085Z,24.20
2023-05-14T15:15:51.241Z,24.22
2023-05-14T15:18:25.323Z,24.23
2023-05-14T15:20:59.270Z,24.24
2023-05-14T15:23:32.344Z,24.24
2023-05-14T15:26:05.975Z,24.25
2023-05-14T15:28:39.213Z,24.26
2023-05-14T15:34:03.276Z,24.28
2023-05-14T15:36:37.195Z,24.29
2023-05-14T15:39:10.324Z,24.31
2023-05-14T15:41:43.411Z,24.32
2023-05-14T15:44:20.198Z,24.32
2023-05-14T15:46:55.873Z,24.33
2023-05-14T15:49:29.207Z,24.34
2023-05-14T15:52:07.900Z,24.34
2023-05-14T15:54:48.366Z,24.35
2023-05-14T15:57:21.439Z,24.35
2023-05-14T15:59:54.324Z,24.36
2023-05-14T16:02:28.474Z,24.37
2023-05-14T16:05:01.420Z,24.37
2023-05-14T16:07:35.282Z,24.38
2023-05-14T16:10:13.009Z,24.39
2023-05-14T16:12:46.282Z,24.40
2023-05-14T16:15:19.273Z,24.40
2023-05-14T16:17:56.336Z,24.40
2023-05-14T16:20:29.069Z,24.41
2023-05-14T16:23:02.245Z,24.42
2023-05-14T16:25:36.287Z,24.43
2023-05-14T16:28:09.100Z,24.44
2023-05-14T16:30:42.560Z,24.45
2023-05-14T16:33:16.399Z,24.46
2023-05-14T16:35:55.988Z,24.47
2023-05-14T16:38:33.050Z,24.48
2023-05-14T16:41:13.328Z,24.49
2023-05-14T16:43:46.247Z,24.50
2023-05-14T16:46:19.407Z,24.51
2023-05-14T16:48:58.348Z,24.52
2023-05-14T16:51:31.646Z,24.53
2023-05-14T16:54:05.084Z,24.53
2023-05-14T16:56:41.957Z,24.54
2023-05-14T16:59:15.227Z,24.55
2023-05-14T17:01:48.297Z,24.55
2023-05-14T17:04:21.680Z,24.56
2023-05-14T17:06:55.175Z,24.56
2023-05-14T17:09:28.077Z,24.56
2023-05-14T17:12:01.229Z,24.56
2023-05-14T17:14:34.274Z,24.57
2023-05-14T17:17:07.090Z,24.57
2023-05-14T17:19:40.125Z,24.56
2023-05-14T17:22:15.108Z,24.56
2023-05-14T17:24:49.051Z,24.56
2023-05-14T17:27:22.114Z,24.56
2023-05-14T17:29:55.363Z,24.56
2023-05-14T17:32:28.589Z,24.56
2023-05-14T17:35:01.248Z,24.56
2023-05-14T17:37:34.350Z,24.55
2023-05-14T17:40:07.391Z,24.55
2023-05-14T17:42:40.385Z,24.55
2023-05-14T17:45:14.393Z,24.55
2023-05-14T17:47:47.712Z,24.54
2023-05-14T17:50:21.422Z,24.54
2023-05-14T17:52:55.515Z,24.53
2023-05-14T17:55:28.509Z,24.53
2023-05-14T17:58:01.525Z,24.53
2023-05-14T18:00:34.552Z,24.53
2023-05-14T18:03:07.477Z,24.52
2023-05-14T18:05:40.453Z,24.52
2023-05-14T18:08:14.656Z,24.52
2023-05-14T18:10:47.347Z,24.52
2023-05-14T18:13:20.494Z,24.52
2023-05-14T18:15:53.483Z,24.52
2023-05-14T18:18:26.592Z,24.52
2023-05-14T18:20:59.329Z,24.52
2023-05-14T18:23:32.599Z,24.52
2023-05-14T18:26:05.198Z,24.52
2023-05-14T18:28:38.211Z,24.53
2023-05-14T18:31:11.501Z,24.53
2023-05-14T18:33:45.736Z,24.53
2023-05-14T18:36:19.231Z,24.53
2023-05-14T18:38:55.473Z,24.53
2023-05-14T18:41:28.364Z,24.53
2023-05-14T18:44:02.627Z,24.53
2023-05-14T18:46:35.787Z,24.54
2023-05-14T18:49:09.374Z,24.54
2023-05-14T18:51:42.525Z,24.54
2023-05-14T18:54:15.582Z,24.54
2023-05-14T18:56:48.665Z,24.54
2023-05-14T18:59:21.529Z,24.54
2023-05-14T19:01:54.590Z,24.54
2023-05-14T19:04:27.653Z,24.53
2023-05-14T19:07:01.988Z,24.53
2023-05-14T19:09:35.499Z,24.52
2023-05-14T19:12:08.323Z,24.51
2023-05-14T19:14:41.380Z,24.51
2023-05-14T19:17:14.435Z,24.50
2023-05-14T19:19:48.719Z,24.49
2023-05-14T19:22:21.517Z,24.47
2023-05-14T19:24:57.576Z,24.46
2023-05-14T19:27:31.522Z,24.45
2023-05-14T19:30:04.305Z,24.44
2023-05-14T19:32:38.714Z,24.43
2023-05-14T19:35:25.441Z,24.43
2023-05-14T19:38:02.877Z,24.42
2023-05-14T19:40:38.844Z,24.41
2023-05-14T19:43:12.672Z,24.41
2023-05-14T19:45:45.661Z,24.40
2023-05-14T19:48:18.529Z,24.40
2023-05-14T19:50:51.474Z,24.40
2023-05-14T19:53:25.708Z,24.40
2023-05-14T19:56:05.140Z,24.40
2023-05-14T19:58:38.660Z,24.40
2023-05-14T20:01:11.692Z,24.40
2023-05-14T20:03:48.489Z,24.39
2023-05-14T20:06:28.650Z,24.39
2023-05-14T20:09:01.760Z,24.39
2023-05-14T20:11:35.540Z,24.39
2023-05-14T20:14:08.739Z,24.39
2023-05-14T20:16:41.720Z,24.39
2023-05-14T20:19:14.625Z,24.39
2023-05-14T20:21:47.463Z,24.38
2023-05-14T20:24:20.741Z,24.38
2023-05-14T20:26:57.451Z,24.38
2023-05-14T20:29:31.978Z,24.38
2023-05-14T20:32:05.920Z,24.38
2023-05-14T20:34:39.666Z,24.38
2023-05-14T20:37:12.815Z,24.38
2023-05-14T20:39:45.677Z,24.38
2023-05-14T20:42:18.845Z,24.38
2023-05-14T20:44:51.736Z,24.38
2023-05-14T20:47:24.809Z,24.37
2023-05-14T20:49:57.679Z,24.37
2023-05-14T20:52:31.838Z,24.37
2023-05-14T20:55:04.903Z,24.37
2023-05-14T20:57:38.428Z,24.36
2023-05-14T21:00:11.710Z,24.35
2023-05-14T21:02:44.809Z,24.35
2023-05-14T21:05:18.838Z,24.34
2023-05-14T21:07:51.648Z,24.34
2023-05-14T21:10:27.943Z,24.33
2023-05-14T21:13:05.720Z,24.33
2023-05-14T21:15:44.370Z,24.32
2023-05-14T21:18:20.742Z,24.32
2023-05-14T21:20:53.588Z,24.31
2023-05-14T21:23:26.663Z,24.30
2023-05-14T21:25:59.884Z,24.30
2023-05-14T21:28:32.846Z,24.29
2023-05-14T21:31:05.915Z,24.28
2023-05-14T21:33:40.799Z,24.27
2023-05-14T21:36:13.783Z,24.26
2023-05-14T21:38:49.903Z,24.25
2023-05-14T21:41:22.934Z,24.24
2023-05-14T21:43:55.877Z,24.23
2023-05-14T21:46:29.073Z,24.22
2023-05-14T21:49:02.822Z,24.21
2023-05-14T21:51:35.879Z,24.20
2023-05-14T21:54:09.179Z,24.19
2023-05-14T21:56:42.918Z,24.17
2023-05-14T21:59:16.487Z,24.16
2023-05-14T22:02:06.119Z,24.15
2023-05-14T22:04:22.865Z,24.14
2023-05-14T22:06:56.092Z,24.13
2023-05-14T22:09:29.762Z,24.12
2023-05-14T22:12:02.850Z,24.11
2023-05-14T22:14:35.711Z,24.10
2023-05-14T22:17:10.147Z,24.09
2023-05-14T22:19:47.692Z,24.09
2023-05-14T22:22:24.733Z,24.08
2023-05-14T22:24:57.902Z,24.07
2023-05-14T22:27:30.994Z,24.06
2023-05-14T22:30:04.938Z,24.05
2023-05-14T22:32:37.881Z,24.04
2023-05-14T22:35:10.908Z,24.03
2023-05-14T22:37:43.833Z,24.02
2023-05-14T22:40:17.161Z,24.01
2023-05-14T22:42:50.717Z,24.00
2023-05-14T22:45:24.187Z,23.99
2023-05-14T22:47:56.979Z,23.98
2023-05-14T22:50:30.120Z,23.97
2023-05-14T22:53:04.424Z,23.96
2023-05-14T22:55:37.775Z,23.95
2023-05-14T22:58:11.012Z,23.94
2023-05-14T23:00:43.759Z,23.93
2023-05-14T23:03:20.946Z,23.93
2023-05-14T23:05:53.731Z,23.92
2023-05-14T23:08:27.023Z,23.91
2023-05-14T23:10:59.874Z,23.90
2023-05-14T23:13:33.107Z,23.89
2023-05-14T23:16:07.035Z,23.89
2023-05-14T23:18:40.122Z,23.88
2023-05-14T23:21:13.038Z,23.87
2023-05-14T23:23:45.849Z,23.86
2023-05-14T23:26:19.146Z,23.85
2023-05-14T23:28:57.829Z,23.84
2023-05-14T23:31:31.093Z,23.84
2023-05-14T23:34:03.760Z,23.83
2023-05-14T23:36:37.206Z,23.82
2023-05-14T23:39:12.025Z,23.81
2023-05-14T23:41:44.961Z,23.81
2023-05-14T23:44:17.879Z,23.80
2023-05-14T23:47:04.974Z,23.79
2023-05-14T23:49:40.884Z,23.78
2023-05-14T23:52:14.076Z,23.78
2023-05-14T23:54:47.110Z,23.77
2023-05-14T23:57:21.095Z,23.77
2023-05-14T23:59:54.132Z,23.76
